Quick Links (Output Below):   Max & Min Temps   /   Climate Reports   /   Zone Forecasts
River Forecasts   /   Forestry Forecasts   /   Aviation Forecasts   /   Radars   /   Features

Terminal Aerodrome Forecast (Harrison)

Pick a Site:
Arkadelphia | El Dorado | Fayetteville | Fort Smith | Harrison | Highfill | Hot Springs | Jonesboro
Little Rock | Monticello | Mountain Home | Pine Bluff | Texarkana
 Forecast 

KHRO 220525Z 2206/2306 00000KT P6SM SKC
      TEMPO 2210/2214 3SM BR
     FM221400 12007KT P6SM SKC
     FM230000 13003KT P6SM BKN250=


 Latest METARs (Observations) 
How to Decode METARs
09Z KHRO 220853Z AUTO 14005KT 10SM CLR 09/08 A3017 RMK AO2 SLP209
         T00940083 53012
         
08Z KHRO 220753Z AUTO 15004KT 10SM CLR 09/08 A3016 RMK AO2 SLP206
         T00890083
         
07Z KHRO 220653Z AUTO 00000KT 10SM CLR 12/09 A3014 RMK AO2 SLP198
         T01170094
         
06Z KHRO 220553Z AUTO 00000KT 10SM CLR 13/09 A3013 RMK AO2 SLP196
         T01280094 10167 20117 402440106 50000
         
05Z KHRO 220453Z AUTO 18003KT 10SM CLR 12/09 A3014 RMK AO2 SLP199
         T01170089
         
04Z KHRO 220353Z AUTO 18003KT 10SM CLR 14/10 A3014 RMK AO2 SLP200
         T01390100
         
03Z KHRO 220253Z AUTO 00000KT 10SM CLR 14/09 A3013 RMK AO2 SLP198
         T01390089 53015
         
02Z KHRO 220153Z AUTO 20003KT 10SM CLR 13/09 A3012 RMK AO2 SLP194
         T01330094
         
01Z KHRO 220053Z AUTO 00000KT 10SM CLR 15/09 A3010 RMK AO2 SLP189
         T01500089
         
00Z KHRO 212353Z AUTO 00000KT 10SM CLR 17/10 A3009 RMK AO2 SLP184
         T01670100 10244 20167 53001
         
***** Today's Observations (Above) *****


Back to Main Page
http://www.srh.noaa.gov/lzk/qfcst.php

USA.gov is the U.S. government's official web portal to all federal, state and local government web resources and services.